Time;durP1;ratioP1;P1;durP2;ratioP2;P2;SDS_P1;SDS_P2;PMS_P1;PMS_P2;Temp;Humidity;BMP_temperature;BMP_pressure;BME280_temperature;BME280_humidity;BME280_pressure;Samples;Min_cycle;Max_cycle;Signal;HPM_P1;HPM_P2
2023/03/09 00:01:40;;;;;;;61.40;39.20;;;;;;;5.79;100.00;95850.95;106203;1257;60347;-78
2023/03/09 00:04:06;;;;;;;65.70;40.00;;;;;;;5.81;100.00;95851.95;106093;1254;60409;-78
2023/03/09 00:06:33;;;;;;;70.00;42.40;;;;;;;5.80;100.00;95851.16;106276;1257;60422;-78
2023/03/09 00:08:59;;;;;;;62.70;38.80;;;;;;;5.79;100.00;95852.25;106076;1254;60486;-78
2023/03/09 00:11:26;;;;;;;56.50;34.10;;;;;;;5.80;100.00;95850.84;106080;1254;60564;-78
2023/03/09 00:13:52;;;;;;;56.00;36.10;;;;;;;5.81;100.00;95852.06;106057;1257;60571;-77
2023/03/09 00:16:24;;;;;;;53.00;35.00;;;;;;;5.80;100.00;95848.42;106064;1256;60452;-77
2023/03/09 00:18:53;;;;;;;44.50;30.60;;;;;;;5.81;100.00;95844.27;106108;1254;70083;-78
2023/03/09 00:24:05;;;;;;;15.30;10.70;;;;;;;5.96;100.00;95837.53;106110;1259;60438;-77
2023/03/09 00:26:34;;;;;;;10.10;7.20;;;;;;;6.19;100.00;95835.23;106105;1254;60403;-78
2023/03/09 00:29:00;;;;;;;15.20;8.60;;;;;;;6.44;100.00;95841.15;106137;1254;73716;-77
2023/03/09 00:31:27;;;;;;;20.60;9.90;;;;;;;6.67;100.00;95843.14;106036;1259;60514;-78
2023/03/09 00:33:53;;;;;;;13.50;7.80;;;;;;;6.81;100.00;95836.10;106059;1254;60306;-78
2023/03/09 00:36:19;;;;;;;10.90;6.60;;;;;;;6.93;100.00;95827.52;106076;1254;60577;-78
2023/03/09 00:38:53;;;;;;;8.20;5.40;;;;;;;7.05;100.00;95815.06;106128;1254;60844;-77
2023/03/09 00:41:20;;;;;;;8.30;6.20;;;;;;;7.17;100.00;95820.08;106181;1254;73705;-78
2023/03/09 00:43:47;;;;;;;11.30;6.20;;;;;;;7.24;100.00;95813.52;106478;1255;70051;-77
2023/03/09 00:46:13;;;;;;;15.30;8.30;;;;;;;7.30;100.00;95813.11;106100;1259;59322;-78
2023/03/09 00:48:40;;;;;;;10.60;7.30;;;;;;;7.34;100.00;95811.09;106093;1259;60539;-78
2023/03/09 00:51:07;;;;;;;11.70;7.30;;;;;;;7.38;100.00;95809.80;105974;1259;61269;-78
2023/03/09 00:53:33;;;;;;;9.60;6.70;;;;;;;7.40;100.00;95809.17;105989;1256;72588;-78
2023/03/09 00:56:04;;;;;;;9.50;7.30;;;;;;;7.38;100.00;95805.39;106002;1254;71034;-78
2023/03/09 00:58:31;;;;;;;11.90;8.40;;;;;;;7.36;100.00;95805.23;106031;1254;72586;-78
2023/03/09 01:00:57;;;;;;;9.50;6.60;;;;;;;7.34;100.00;95801.02;106006;1260;60443;-78
2023/03/09 01:03:23;;;;;;;10.50;5.90;;;;;;;7.41;100.00;95789.83;106023;1259;60434;-78
2023/03/09 01:05:50;;;;;;;13.30;6.10;;;;;;;7.46;100.00;95786.78;106109;1259;60388;-78
2023/03/09 01:08:17;;;;;;;10.40;6.00;;;;;;;7.48;100.00;95788.17;106182;1259;69873;-78
2023/03/09 01:10:44;;;;;;;10.00;5.70;;;;;;;7.49;100.00;95785.73;106036;1254;72549;-78
2023/03/09 01:13:11;;;;;;;21.00;12.50;;;;;;;7.52;100.00;95787.90;106062;1254;60456;-78
2023/03/09 01:15:37;;;;;;;12.90;8.90;;;;;;;7.54;100.00;95795.33;106016;1254;60370;-78
2023/03/09 01:18:04;;;;;;;19.50;11.30;;;;;;;7.57;100.00;95790.89;106117;1254;60437;-78
2023/03/09 01:20:30;;;;;;;10.30;6.10;;;;;;;7.58;100.00;95780.71;106053;1254;61428;-78
2023/03/09 01:22:57;;;;;;;10.80;7.00;;;;;;;7.59;100.00;95770.98;106046;1257;60428;-78
2023/03/09 01:25:23;;;;;;;7.60;4.50;;;;;;;7.62;100.00;95757.04;106038;1254;60613;-79
2023/03/09 01:27:51;;;;;;;8.80;5.00;;;;;;;7.68;100.00;95754.22;106255;1254;60517;-78
2023/03/09 01:30:17;;;;;;;9.60;4.30;;;;;;;7.69;100.00;95756.58;106117;1254;72527;-78
2023/03/09 01:32:43;;;;;;;7.40;3.90;;;;;;;7.72;100.00;95748.87;106103;1254;60367;-78
2023/03/09 01:35:10;;;;;;;8.90;4.30;;;;;;;7.72;100.00;95752.06;106087;1254;61524;-77
2023/03/09 01:37:36;;;;;;;6.00;3.90;;;;;;;7.72;100.00;95750.84;106063;1256;60526;-78
2023/03/09 01:40:06;;;;;;;4.90;2.90;;;;;;;7.74;100.00;95750.58;106064;1258;60517;-78
2023/03/09 01:42:33;;;;;;;5.60;4.20;;;;;;;7.77;100.00;95754.54;106027;1254;73684;-77
2023/03/09 01:45:18;;;;;;;7.80;4.20;;;;;;;7.82;100.00;95757.78;106055;1254;70225;-78
2023/03/09 01:47:45;;;;;;;5.40;3.80;;;;;;;7.86;100.00;95756.27;106068;1254;72545;-77
2023/03/09 01:50:13;;;;;;;14.60;5.00;;;;;;;7.89;100.00;95752.63;105999;1254;127762;-78
2023/03/09 01:52:39;;;;;;;8.70;4.90;;;;;;;7.91;100.00;95753.48;106039;1256;60352;-78
2023/03/09 01:55:11;;;;;;;4.90;3.00;;;;;;;7.92;100.00;95757.15;105968;1258;60470;-78
2023/03/09 01:57:45;;;;;;;4.90;2.90;;;;;;;7.93;100.00;95747.83;106066;1254;70374;-78
2023/03/09 02:00:14;;;;;;;5.50;3.10;;;;;;;7.91;100.00;95749.16;106026;1254;72744;-78
2023/03/09 02:02:43;;;;;;;6.00;3.40;;;;;;;7.86;100.00;95748.40;106081;1254;61229;-78
2023/03/09 02:05:11;;;;;;;11.40;5.80;;;;;;;7.79;100.00;95749.19;106049;1254;60498;-77
2023/03/09 02:07:39;;;;;;;6.70;3.70;;;;;;;7.75;100.00;95743.88;106154;1259;73743;-78
2023/03/09 02:10:31;;;;;;;5.00;3.50;;;;;;;7.73;100.00;95748.74;106077;1254;70150;-77
2023/03/09 02:13:01;;;;;;;7.10;5.60;;;;;;;7.70;100.00;95747.45;106146;1254;71474;-78
2023/03/09 02:15:28;;;;;;;5.70;4.50;;;;;;;7.68;100.00;95745.11;106135;1254;60300;-78
2023/03/09 02:17:54;;;;;;;8.00;5.20;;;;;;;7.67;100.00;95741.52;106064;1259;60430;-78
2023/03/09 02:20:58;;;;;;;6.00;3.50;;;;;;;7.66;100.00;95744.31;105993;1254;60517;-79
2023/03/09 02:23:51;;;;;;;4.10;2.50;;;;;;;7.66;100.00;95735.56;106061;1259;70768;-77
2023/03/09 02:26:34;;;;;;;10.40;4.20;;;;;;;7.69;100.00;95733.17;106095;1254;72495;-78
2023/03/09 02:29:00;;;;;;;4.90;3.00;;;;;;;7.73;100.00;95729.87;106145;1258;60498;-78
2023/03/09 02:31:27;;;;;;;4.30;2.60;;;;;;;7.74;100.00;95725.59;106107;1257;60371;-78
2023/03/09 02:33:53;;;;;;;3.10;2.30;;;;;;;7.76;100.00;95724.38;106013;1254;60435;-77
2023/03/09 02:36:21;;;;;;;7.10;3.70;;;;;;;7.81;100.00;95719.27;106054;1254;60545;-78
2023/03/09 02:38:47;;;;;;;5.80;2.60;;;;;;;7.85;100.00;95715.40;106052;1259;71441;-78
2023/03/09 02:41:14;;;;;;;2.90;1.90;;;;;;;7.89;100.00;95713.64;105955;1255;60539;-77
2023/03/09 02:43:45;;;;;;;8.60;3.60;;;;;;;7.88;100.00;95718.71;106058;1254;60453;-77
2023/03/09 02:46:12;;;;;;;11.70;6.40;;;;;;;7.86;100.00;95726.39;106028;1255;73720;-77
2023/03/09 02:48:38;;;;;;;10.80;5.10;;;;;;;7.84;100.00;95722.82;106115;1257;60319;-77
2023/03/09 02:51:06;;;;;;;5.70;3.50;;;;;;;7.81;100.00;95723.76;106041;1254;61521;-78
2023/03/09 02:53:33;;;;;;;8.80;4.10;;;;;;;7.80;100.00;95727.75;106044;1254;60329;-78
2023/03/09 02:55:59;;;;;;;5.00;2.90;;;;;;;7.81;100.00;95722.45;106015;1254;61751;-77
2023/03/09 02:58:26;;;;;;;5.30;2.30;;;;;;;7.81;100.00;95722.06;106023;1258;60350;-78
2023/03/09 03:00:52;;;;;;;3.40;2.20;;;;;;;7.81;100.00;95726.61;106004;1260;60541;-77
2023/03/09 03:03:20;;;;;;;3.60;2.20;;;;;;;7.80;100.00;95725.40;105935;1256;60420;-78
2023/03/09 03:05:47;;;;;;;3.00;2.30;;;;;;;7.78;100.00;95725.70;105962;1260;60407;-78
2023/03/09 03:08:14;;;;;;;7.30;2.80;;;;;;;7.79;100.00;95722.30;106054;1256;60320;-78
2023/03/09 03:10:40;;;;;;;4.40;2.80;;;;;;;7.81;100.00;95725.15;105957;1256;60433;-78
2023/03/09 03:13:06;;;;;;;3.70;2.30;;;;;;;7.80;100.00;95725.72;106138;1256;60461;-77
2023/03/09 03:15:33;;;;;;;6.40;3.60;;;;;;;7.78;100.00;95730.86;105983;1260;60499;-78
2023/03/09 03:17:59;;;;;;;6.40;3.90;;;;;;;7.75;100.00;95740.27;105994;1256;60544;-78
2023/03/09 03:20:26;;;;;;;5.20;3.40;;;;;;;7.71;100.00;95738.34;105958;1256;60550;-78
2023/03/09 03:22:52;;;;;;;6.40;3.70;;;;;;;7.67;100.00;95741.69;106063;1260;60942;-78
2023/03/09 03:25:19;;;;;;;5.00;3.10;;;;;;;7.62;100.00;95742.86;105978;1260;60537;-78
2023/03/09 03:27:45;;;;;;;3.70;2.60;;;;;;;7.58;100.00;95730.64;106000;1256;60525;-78
2023/03/09 03:30:12;;;;;;;4.30;2.80;;;;;;;7.57;100.00;95729.16;105994;1261;61284;-77
2023/03/09 03:32:39;;;;;;;9.60;6.40;;;;;;;7.56;100.00;95730.17;106104;1259;60429;-78
2023/03/09 03:35:06;;;;;;;8.40;6.90;;;;;;;7.50;100.00;95727.37;105815;1256;72610;-78
2023/03/09 03:37:32;;;;;;;9.90;7.30;;;;;;;7.44;100.00;95729.17;105955;1256;70866;-78
2023/03/09 03:39:59;;;;;;;13.20;9.60;;;;;;;7.40;100.00;95729.27;105897;1261;60443;-78
2023/03/09 03:42:25;;;;;;;12.30;7.30;;;;;;;7.38;100.00;95734.17;106002;1256;60577;-78
2023/03/09 03:44:51;;;;;;;15.70;10.40;;;;;;;7.38;100.00;95733.95;105970;1260;60430;-77
2023/03/09 03:47:18;;;;;;;7.10;4.70;;;;;;;7.34;100.00;95730.80;106020;1261;60432;-78
2023/03/09 03:49:44;;;;;;;7.20;4.50;;;;;;;7.33;100.00;95728.63;105938;1256;60400;-77
2023/03/09 03:52:12;;;;;;;8.50;4.60;;;;;;;7.33;100.00;95721.66;105963;1256;61537;-77
2023/03/09 03:54:39;;;;;;;8.70;6.10;;;;;;;7.34;100.00;95726.17;105968;1258;60466;-77
2023/03/09 03:57:05;;;;;;;10.50;5.80;;;;;;;7.32;100.00;95723.38;106048;1254;60355;-78
2023/03/09 03:59:31;;;;;;;10.50;6.80;;;;;;;7.30;100.00;95720.43;106055;1259;60337;-77
2023/03/09 04:01:58;;;;;;;10.80;7.20;;;;;;;7.26;100.00;95710.56;106105;1257;60482;-78
2023/03/09 04:04:24;;;;;;;7.80;4.50;;;;;;;7.27;100.00;95706.78;105987;1253;60441;-77
2023/03/09 04:06:51;;;;;;;7.60;5.20;;;;;;;7.31;100.00;95705.38;106092;1254;60559;-77
2023/03/09 04:09:17;;;;;;;14.80;8.70;;;;;;;7.30;100.00;95696.34;106077;1254;60539;-78
2023/03/09 04:11:45;;;;;;;17.10;11.20;;;;;;;7.27;100.00;95703.89;106158;1254;60550;-79
2023/03/09 04:14:11;;;;;;;16.40;9.60;;;;;;;7.22;100.00;95702.83;106433;1254;71043;-78
2023/03/09 04:16:38;;;;;;;10.40;6.40;;;;;;;7.16;100.00;95699.61;106102;1254;72497;-80
2023/03/09 04:19:05;;;;;;;11.10;5.70;;;;;;;7.05;100.00;95692.80;106055;1260;60498;-78
2023/03/09 04:21:31;;;;;;;10.90;5.30;;;;;;;6.97;100.00;95695.73;106058;1258;60484;-78
2023/03/09 04:23:58;;;;;;;7.80;5.00;;;;;;;6.93;100.00;95698.98;106051;1259;61591;-78
2023/03/09 04:26:24;;;;;;;19.80;11.00;;;;;;;6.89;100.00;95695.10;106062;1258;60548;-79
2023/03/09 04:28:50;;;;;;;21.00;11.60;;;;;;;6.84;100.00;95688.18;106139;1254;60768;-79
2023/03/09 04:31:17;;;;;;;22.80;14.00;;;;;;;6.76;100.00;95683.81;106082;1254;60408;-78
2023/03/09 04:33:43;;;;;;;17.60;10.60;;;;;;;6.70;100.00;95686.99;106060;1255;60512;-79
2023/03/09 04:36:10;;;;;;;16.10;12.60;;;;;;;6.66;100.00;95686.69;106014;1259;60558;-79
2023/03/09 04:38:37;;;;;;;18.80;13.30;;;;;;;6.63;100.00;95691.39;106029;1254;60411;-79
2023/03/09 04:41:03;;;;;;;19.70;12.50;;;;;;;6.62;100.00;95691.17;106023;1254;60513;-78
2023/03/09 04:43:30;;;;;;;11.70;7.90;;;;;;;6.58;100.00;95690.09;106263;1254;60536;-79
2023/03/09 04:45:56;;;;;;;12.40;5.60;;;;;;;6.55;100.00;95685.16;106020;1254;60481;-79
2023/03/09 04:48:22;;;;;;;24.50;14.90;;;;;;;6.53;100.00;95686.39;106054;1259;60559;-79
2023/03/09 04:50:49;;;;;;;24.80;15.90;;;;;;;6.52;100.00;95684.39;106073;1254;60554;-78
2023/03/09 04:53:15;;;;;;;34.50;24.90;;;;;;;6.52;100.00;95688.73;105976;1254;60514;-79
2023/03/09 04:55:41;;;;;;;28.70;18.60;;;;;;;6.48;100.00;95689.67;105868;1260;60458;-79
2023/03/09 04:58:08;;;;;;;32.80;23.40;;;;;;;6.47;100.00;95683.70;105966;1260;60399;-79
2023/03/09 05:00:34;;;;;;;37.20;27.40;;;;;;;6.45;100.00;95682.71;105949;1260;60464;-78
2023/03/09 05:03:01;;;;;;;31.00;23.60;;;;;;;6.45;100.00;95683.15;105954;1256;60460;-78
2023/03/09 05:05:27;;;;;;;29.30;21.30;;;;;;;6.43;100.00;95684.19;105956;1261;60550;-77
2023/03/09 05:07:53;;;;;;;49.00;36.60;;;;;;;6.40;100.00;95684.48;105940;1262;60544;-76
2023/03/09 05:10:20;;;;;;;32.30;24.50;;;;;;;6.39;100.00;95681.22;105927;1260;60703;-77
2023/03/09 05:12:46;;;;;;;32.50;24.20;;;;;;;6.37;100.00;95678.52;105915;1260;60432;-77
2023/03/09 05:15:12;;;;;;;33.40;25.10;;;;;;;6.37;100.00;95685.14;106223;1256;60545;-77
2023/03/09 05:17:39;;;;;;;37.10;26.50;;;;;;;6.36;100.00;95688.88;106195;1256;60431;-78
2023/03/09 05:20:09;;;;;;;32.70;25.50;;;;;;;6.35;100.00;95686.55;106259;1256;60464;-77
2023/03/09 05:22:37;;;;;;;34.70;25.90;;;;;;;6.34;100.00;95683.83;105971;1256;60646;-77
2023/03/09 05:25:06;;;;;;;23.80;17.00;;;;;;;6.33;100.00;95681.20;106000;1257;72549;-77
2023/03/09 05:27:33;;;;;;;22.80;18.10;;;;;;;6.32;100.00;95681.27;105970;1260;70914;-77
2023/03/09 05:29:59;;;;;;;26.00;21.00;;;;;;;6.33;100.00;95687.09;105926;1260;61587;-77
2023/03/09 05:32:26;;;;;;;28.20;20.40;;;;;;;6.35;100.00;95689.71;105912;1260;60514;-77
2023/03/09 05:34:52;;;;;;;29.60;23.70;;;;;;;6.36;100.00;95683.84;105999;1256;60488;-77
2023/03/09 05:37:19;;;;;;;28.20;20.70;;;;;;;6.36;100.00;95686.46;105917;1260;60413;-77
2023/03/09 05:39:45;;;;;;;21.90;16.00;;;;;;;6.35;100.00;95681.18;105991;1260;60425;-78
2023/03/09 05:42:11;;;;;;;22.10;17.30;;;;;;;6.34;100.00;95680.52;105906;1256;60474;-77
2023/03/09 05:44:38;;;;;;;28.80;19.20;;;;;;;6.36;100.00;95680.00;105941;1256;60417;-77
2023/03/09 05:47:04;;;;;;;25.20;17.60;;;;;;;6.37;100.00;95680.83;105954;1260;60538;-77
2023/03/09 05:49:31;;;;;;;20.00;15.00;;;;;;;6.38;100.00;95674.56;105938;1256;60551;-77
2023/03/09 05:51:58;;;;;;;21.90;14.80;;;;;;;6.38;100.00;95675.36;105947;1260;59264;-77
2023/03/09 05:54:24;;;;;;;31.70;22.70;;;;;;;6.39;100.00;95674.79;105788;1256;60351;-77
2023/03/09 05:56:54;;;;;;;43.30;29.60;;;;;;;6.41;100.00;95670.98;106011;1254;60453;-77
2023/03/09 05:59:20;;;;;;;58.10;35.80;;;;;;;6.45;100.00;95668.94;106001;1254;60193;-77
2023/03/09 06:01:47;;;;;;;63.40;38.20;;;;;;;6.48;100.00;95673.43;106078;1258;60579;-77
2023/03/09 06:04:13;;;;;;;59.20;39.60;;;;;;;6.50;100.00;95669.80;105911;1256;60383;-77
2023/03/09 06:06:39;;;;;;;59.40;35.90;;;;;;;6.53;100.00;95672.23;105931;1256;60467;-77
2023/03/09 06:09:06;;;;;;;56.70;37.40;;;;;;;6.57;100.00;95679.11;106103;1259;60560;-77
2023/03/09 06:11:32;;;;;;;95.50;52.20;;;;;;;6.63;100.00;95680.31;106098;1254;60557;-77
2023/03/09 06:13:59;;;;;;;110.00;55.70;;;;;;;6.63;100.00;95682.94;105925;1255;60939;-77
2023/03/09 06:16:26;;;;;;;103.10;54.30;;;;;;;6.64;100.00;95674.67;106014;1254;60510;-77
2023/03/09 06:18:56;;;;;;;81.40;49.10;;;;;;;6.69;100.00;95670.56;106774;1260;72552;-77
2023/03/09 06:21:22;;;;;;;85.80;53.60;;;;;;;6.75;100.00;95671.52;106052;1258;60452;-77
2023/03/09 06:23:48;;;;;;;83.60;54.80;;;;;;;6.82;100.00;95672.37;106139;1256;60434;-77
2023/03/09 06:26:15;;;;;;;57.40;40.10;;;;;;;6.89;100.00;95671.66;106162;1260;60487;-77
2023/03/09 06:28:41;;;;;;;36.80;23.30;;;;;;;6.97;100.00;95666.42;106144;1256;60529;-77
2023/03/09 06:31:12;;;;;;;26.70;18.40;;;;;;;7.07;100.00;95664.95;106118;1258;59808;-77
2023/03/09 06:33:39;;;;;;;16.10;10.60;;;;;;;7.20;100.00;95671.58;106422;1256;60524;-77
2023/03/09 06:36:07;;;;;;;13.30;10.80;;;;;;;7.35;100.00;95660.73;106281;1255;60413;-78
2023/03/09 06:38:33;;;;;;;8.70;6.20;;;;;;;7.52;100.00;95664.85;106103;1257;73764;-78
2023/03/09 06:41:00;;;;;;;7.60;5.40;;;;;;;7.72;100.00;95662.29;106176;1256;60345;-78
2023/03/09 06:43:26;;;;;;;8.90;5.60;;;;;;;7.91;100.00;95658.65;106276;1260;60460;-77
2023/03/09 06:45:53;;;;;;;7.60;4.50;;;;;;;8.05;100.00;95654.44;106209;1260;60420;-78
2023/03/09 06:48:19;;;;;;;14.90;8.50;;;;;;;8.14;100.00;95657.70;106645;1259;60456;-77
2023/03/09 06:50:48;;;;;;;14.20;9.20;;;;;;;8.22;100.00;95661.33;106569;1262;60424;-77
2023/03/09 06:53:15;;;;;;;9.90;6.80;;;;;;;8.32;100.00;95660.27;108921;1256;71071;-77
2023/03/09 06:55:41;;;;;;;11.40;6.90;;;;;;;8.44;100.00;95669.45;105990;1260;71970;-78
2023/03/09 06:58:08;;;;;;;8.40;4.60;;;;;;;8.56;100.00;95670.87;106258;1260;60284;-79
2023/03/09 07:00:40;;;;;;;7.80;5.70;;;;;;;8.68;100.00;95672.44;106312;1260;60462;-79
2023/03/09 07:03:09;;;;;;;11.20;5.10;;;;;;;8.76;100.00;95671.17;106107;1260;73799;-78
2023/03/09 07:05:35;;;;;;;8.90;4.90;;;;;;;8.82;100.00;95672.08;106247;1254;70726;-78
2023/03/09 07:08:01;;;;;;;8.50;5.30;;;;;;;8.87;100.00;95669.34;106205;1259;61260;-78
2023/03/09 07:10:28;;;;;;;10.70;5.00;;;;;;;8.89;100.00;95664.83;106072;1260;61343;-78
2023/03/09 07:12:54;;;;;;;9.40;5.90;;;;;;;8.93;100.00;95660.13;106137;1259;61264;-78
2023/03/09 07:15:20;;;;;;;9.50;4.80;;;;;;;8.95;100.00;95661.52;106059;1259;61212;-77
2023/03/09 07:17:47;;;;;;;19.90;8.10;;;;;;;8.95;100.00;95661.73;106442;1260;61324;-77
2023/03/09 07:20:13;;;;;;;14.30;7.70;;;;;;;8.98;100.00;95664.71;106138;1260;61319;-78
2023/03/09 07:22:40;;;;;;;9.70;5.90;;;;;;;9.01;100.00;95663.52;106144;1260;61342;-78
2023/03/09 07:25:06;;;;;;;11.60;7.90;;;;;;;9.02;100.00;95652.98;106095;1260;61232;-78
2023/03/09 07:27:33;;;;;;;14.70;8.30;;;;;;;9.05;100.00;95651.38;106046;1259;61443;-78
2023/03/09 07:29:59;;;;;;;17.40;8.70;;;;;;;9.01;100.00;95654.40;106167;1267;61300;-77
2023/03/09 07:32:26;;;;;;;9.40;5.30;;;;;;;8.96;100.00;95639.08;106182;1260;61282;-78
2023/03/09 07:34:53;;;;;;;15.40;8.80;;;;;;;8.92;100.00;95637.61;106138;1257;61341;-77
2023/03/09 07:37:19;;;;;;;16.00;8.00;;;;;;;8.90;100.00;95632.67;106158;1260;61318;-78
2023/03/09 07:39:45;;;;;;;11.60;6.10;;;;;;;8.90;100.00;95623.65;106405;1260;62292;-77
2023/03/09 07:42:12;;;;;;;12.50;7.70;;;;;;;8.90;100.00;95616.41;106404;1259;61334;-78
2023/03/09 07:44:38;;;;;;;16.60;9.80;;;;;;;8.90;100.00;95611.45;106219;1257;61366;-77
2023/03/09 07:47:05;;;;;;;10.30;6.60;;;;;;;8.90;100.00;95606.08;106336;1257;61214;-78
2023/03/09 07:49:31;;;;;;;16.30;9.70;;;;;;;8.95;100.00;95600.31;106335;1260;61227;-78
2023/03/09 07:51:59;;;;;;;20.40;12.20;;;;;;;8.99;100.00;95603.80;106361;1262;74592;-78
2023/03/09 07:54:25;;;;;;;19.60;12.70;;;;;;;8.99;100.00;95606.49;106486;1260;61318;-79
2023/03/09 07:56:52;;;;;;;9.60;5.50;;;;;;;8.98;100.00;95612.95;107394;1259;59514;-78
2023/03/09 07:59:19;;;;;;;8.20;5.00;;;;;;;8.97;100.00;95619.54;106314;1259;61230;-78
2023/03/09 08:01:45;;;;;;;47.30;22.50;;;;;;;8.97;100.00;95620.77;106318;1260;61220;-78
2023/03/09 08:04:13;;;;;;;37.70;19.50;;;;;;;9.01;100.00;95624.91;106330;1259;74569;-78
2023/03/09 08:06:39;;;;;;;65.00;31.90;;;;;;;9.02;100.00;95631.45;106258;1258;71962;-78
2023/03/09 08:09:06;;;;;;;53.70;27.40;;;;;;;9.00;100.00;95635.31;106186;1258;72499;-78
2023/03/09 08:11:33;;;;;;;39.00;19.70;;;;;;;8.99;100.00;95643.20;106214;1259;61104;-78
2023/03/09 08:14:00;;;;;;;50.20;27.10;;;;;;;8.96;100.00;95646.04;106183;1261;61357;-78
2023/03/09 08:16:26;;;;;;;55.00;33.20;;;;;;;8.93;100.00;95647.45;106197;1254;61233;-78
2023/03/09 08:18:53;;;;;;;24.40;15.10;;;;;;;8.91;100.00;95646.14;106343;1254;61125;-78
2023/03/09 08:21:19;;;;;;;14.70;11.20;;;;;;;8.92;100.00;95647.20;106260;1256;61220;-78
2023/03/09 08:23:46;;;;;;;24.70;15.00;;;;;;;8.98;100.00;95649.97;106417;1260;61349;-78
2023/03/09 08:26:15;;;;;;;51.60;32.20;;;;;;;9.05;100.00;95643.00;106410;1254;61126;-78
2023/03/09 08:28:42;;;;;;;77.10;46.60;;;;;;;9.14;100.00;95640.84;106580;1254;73405;-78
2023/03/09 08:31:10;;;;;;;85.30;53.30;;;;;;;9.25;100.00;95636.88;106292;1260;69833;-78
2023/03/09 08:33:36;;;;;;;146.10;89.50;;;;;;;9.22;100.00;95633.08;107163;1256;71484;-78
2023/03/09 08:36:15;;;;;;;73.50;44.60;;;;;;;9.32;100.00;95638.25;106168;1260;61336;-78
2023/03/09 08:38:42;;;;;;;79.90;50.20;;;;;;;9.37;100.00;95632.62;109192;1256;58957;-76
2023/03/09 08:41:09;;;;;;;104.40;56.30;;;;;;;9.40;100.00;95634.82;106240;1257;75038;-77
2023/03/09 08:43:35;;;;;;;47.50;32.40;;;;;;;9.37;100.00;95631.27;106119;1260;70514;-78
2023/03/09 08:46:02;;;;;;;25.90;16.70;;;;;;;9.40;100.00;95629.39;105985;1260;62327;-79
2023/03/09 08:48:28;;;;;;;17.30;9.20;;;;;;;9.36;100.00;95629.26;106119;1260;62436;-77
2023/03/09 08:50:55;;;;;;;10.80;7.50;;;;;;;9.42;100.00;95630.09;106121;1260;61338;-76
2023/03/09 08:53:21;;;;;;;46.70;25.70;;;;;;;9.44;100.00;95632.25;106129;1258;61230;-77
2023/03/09 08:55:47;;;;;;;27.40;18.90;;;;;;;9.41;100.00;95627.66;106118;1257;61582;-77
2023/03/09 08:58:14;;;;;;;16.20;11.50;;;;;;;9.38;100.00;95628.47;106263;1258;61355;-77
2023/03/09 09:00:40;;;;;;;36.30;19.50;;;;;;;9.32;100.00;95627.66;106140;1255;61353;-77
2023/03/09 09:03:07;;;;;;;20.80;13.40;;;;;;;9.30;100.00;95636.66;106181;1258;61848;-77
2023/03/09 09:05:34;;;;;;;159.00;68.60;;;;;;;9.36;100.00;95636.06;106118;1258;61607;-77
2023/03/09 09:08:00;;;;;;;38.40;22.10;;;;;;;9.38;100.00;95644.98;106139;1259;61199;-78
2023/03/09 09:10:27;;;;;;;57.30;26.90;;;;;;;9.44;100.00;95637.36;106257;1267;61341;-77
2023/03/09 09:12:53;;;;;;;52.20;27.30;;;;;;;9.48;100.00;95632.57;106084;1257;61281;-78
2023/03/09 09:15:20;;;;;;;38.20;23.10;;;;;;;9.65;100.00;95627.41;106177;1260;61239;-77
2023/03/09 09:17:46;;;;;;;28.50;15.10;;;;;;;9.85;100.00;95628.41;106170;1256;61269;-76
2023/03/09 09:20:12;;;;;;;13.20;8.60;;;;;;;10.09;100.00;95625.63;106225;1258;61375;-79
2023/03/09 09:22:40;;;;;;;12.50;7.10;;;;;;;10.34;100.00;95629.21;106290;1257;63375;-78
2023/03/09 09:25:08;;;;;;;9.20;5.60;;;;;;;10.58;100.00;95626.52;107215;1254;61218;-78
2023/03/09 09:27:35;;;;;;;8.40;4.00;;;;;;;10.71;100.00;95629.35;106098;1260;61277;-77
2023/03/09 09:30:05;;;;;;;6.70;3.40;;;;;;;10.87;100.00;95627.55;106277;1255;73987;-77
2023/03/09 09:32:32;;;;;;;4.00;2.20;;;;;;;10.95;100.00;95638.02;106202;1260;71143;-77
2023/03/09 09:34:59;;;;;;;4.10;2.80;;;;;;;10.97;100.00;95632.64;106233;1260;61855;-78
2023/03/09 09:37:28;;;;;;;21.60;11.60;;;;;;;10.92;100.00;95630.78;106322;1260;61087;-77
2023/03/09 09:39:54;;;;;;;;;;;;;;;10.87;100.00;95634.43;106405;1260;61220;-77
2023/03/09 09:42:25;;;;;;;4.80;3.40;;;;;;;10.83;100.00;95632.51;106385;1254;61333;-78
2023/03/09 09:44:52;;;;;;;5.30;3.30;;;;;;;10.84;100.00;95636.42;106100;1257;72024;-78
2023/03/09 09:47:21;;;;;;;5.90;3.10;;;;;;;10.91;100.00;95632.14;106045;1260;72040;-79
2023/03/09 09:49:48;;;;;;;;;;;;;;;10.98;100.00;95638.27;106091;1258;61369;-79
2023/03/09 09:52:18;;;;;;;7.40;4.20;;;;;;;11.07;100.00;95645.17;106122;1254;61189;-78
2023/03/09 09:55:23;;;;;;;6.10;3.30;;;;;;;11.12;100.00;95652.48;106067;1260;74636;-78
2023/03/09 09:58:03;;;;;;;6.50;4.90;;;;;;;11.03;100.00;95657.23;105890;1258;71125;-77
2023/03/09 10:00:33;;;;;;;6.20;3.60;;;;;;;10.92;100.00;95667.27;106211;1258;72713;-78
2023/03/09 10:03:05;;;;;;;13.10;5.30;;;;;;;10.84;100.00;95669.77;106974;1260;59612;-78
2023/03/09 10:05:40;;;;;;;10.80;5.00;;;;;;;10.74;100.00;95670.38;106323;1260;61232;-78
2023/03/09 10:08:24;;;;;;;11.00;4.60;;;;;;;10.67;100.00;95675.27;106156;1256;73483;-79
2023/03/09 10:10:50;;;;;;;15.80;8.60;;;;;;;10.65;100.00;95681.31;106093;1256;71204;-79
2023/03/09 10:13:36;;;;;;;60.50;22.70;;;;;;;10.70;100.00;95684.53;106725;1256;72365;-77
2023/03/09 10:16:06;;;;;;;15.70;6.90;;;;;;;10.80;100.00;95684.89;106009;1257;61223;-78
2023/03/09 10:18:34;;;;;;;12.30;4.90;;;;;;;10.87;100.00;95691.48;106311;1257;61481;-78
2023/03/09 10:21:01;;;;;;;17.40;6.20;;;;;;;10.88;100.00;95693.67;106191;1261;72922;-78
2023/03/09 10:23:29;;;;;;;6.10;3.20;;;;;;;10.77;100.00;95710.02;106222;1254;61257;-78
2023/03/09 10:26:15;;;;;;;;;;;;;;;10.65;100.00;95718.83;106084;1257;71259;-77
2023/03/09 10:28:43;;;;;;;25.70;10.30;;;;;;;10.55;100.00;95733.48;106207;1257;61191;-79
2023/03/09 10:31:14;;;;;;;11.10;4.70;;;;;;;10.48;100.00;95739.45;106173;1256;61238;-78
2023/03/09 10:33:45;;;;;;;6.90;4.00;;;;;;;10.38;100.00;95746.67;106158;1257;73908;-77
2023/03/09 10:36:21;;;;;;;15.30;6.80;;;;;;;10.33;100.00;95749.44;106296;1257;70348;-77
2023/03/09 10:38:48;;;;;;;7.40;2.90;;;;;;;10.27;100.00;95755.19;106233;1260;71118;-79
2023/03/09 10:41:19;;;;;;;18.10;5.00;;;;;;;10.20;100.00;95758.61;106168;1258;61210;-79
2023/03/09 10:43:46;;;;;;;7.40;3.40;;;;;;;10.16;100.00;95766.69;106618;1257;61344;-77
2023/03/09 10:46:20;;;;;;;22.40;5.00;;;;;;;10.15;100.00;95770.19;106902;1256;74552;-77
2023/03/09 10:48:47;;;;;;;12.50;4.60;;;;;;;10.17;100.00;95774.14;106245;1258;69358;-77
2023/03/09 10:51:28;;;;;;;4.30;2.80;;;;;;;10.15;100.00;95780.00;106906;1259;73737;-79
2023/03/09 10:53:56;;;;;;;17.50;5.40;;;;;;;10.08;100.00;95786.94;106056;1258;61158;-77
2023/03/09 10:56:32;;;;;;;4.80;3.40;;;;;;;10.08;100.00;95794.83;106002;1256;61343;-79
2023/03/09 10:59:08;;;;;;;8.20;3.00;;;;;;;10.10;100.00;95797.30;106669;1257;76796;-77
2023/03/09 11:01:42;;;;;;;9.90;5.80;;;;;;;10.09;100.00;95807.77;106094;1257;70233;-78
2023/03/09 11:04:21;;;;;;;7.70;3.40;;;;;;;10.00;100.00;95813.16;106065;1261;72670;-78
2023/03/09 11:06:51;;;;;;;;;;;;;;;9.92;100.00;95820.09;106193;1257;61349;-79
2023/03/09 11:09:19;;;;;;;7.50;3.90;;;;;;;9.81;100.00;95824.48;106245;1257;61136;-78
2023/03/09 11:11:46;;;;;;;4.70;3.30;;;;;;;9.74;100.00;95832.64;106082;1260;74711;-77
2023/03/09 11:14:23;;;;;;;7.70;5.40;;;;;;;9.66;100.00;95831.98;106028;1260;69234;-78
2023/03/09 11:16:51;;;;;;;7.20;5.10;;;;;;;9.56;100.00;95840.88;106026;1256;71412;-78
2023/03/09 11:19:18;;;;;;;10.60;6.20;;;;;;;9.47;100.00;95845.56;106180;1260;61227;-80
2023/03/09 11:21:56;;;;;;;10.00;6.50;;;;;;;9.41;100.00;95855.02;106256;1256;62633;-78
2023/03/09 11:24:26;;;;;;;17.60;11.80;;;;;;;9.33;100.00;95856.40;106290;1260;73382;-78